sensor_id;sensor_type;location;lat;lon;timestamp;pressure;altitude;pressure_sealevel;temperature;humidity
75136;BME280;63707;52.212;9.540;2022-12-07T00:00:39;99871.44;;;1.58;100.00
75136;BME280;63707;52.212;9.540;2022-12-07T00:03:06;99874.97;;;1.58;100.00
75136;BME280;63707;52.212;9.540;2022-12-07T00:05:31;99855.19;;;1.60;100.00
75136;BME280;63707;52.212;9.540;2022-12-07T00:07:56;99865.75;;;1.61;100.00
75136;BME280;63707;52.212;9.540;2022-12-07T00:10:22;99869.81;;;1.65;100.00
75136;BME280;63707;52.212;9.540;2022-12-07T00:12:47;99860.94;;;1.65;100.00
75136;BME280;63707;52.212;9.540;2022-12-07T00:15:13;99854.56;;;1.66;100.00
75136;BME280;63707;52.212;9.540;2022-12-07T00:17:39;99853.41;;;1.68;100.00
75136;BME280;63707;52.212;9.540;2022-12-07T00:20:07;99856.47;;;1.73;100.00
75136;BME280;63707;52.212;9.540;2022-12-07T00:22:32;99848.25;;;1.75;100.00
75136;BME280;63707;52.212;9.540;2022-12-07T00:24:58;99850.47;;;1.79;100.00
75136;BME280;63707;52.212;9.540;2022-12-07T00:27:23;99835.03;;;1.81;100.00
75136;BME280;63707;52.212;9.540;2022-12-07T00:29:49;99829.34;;;1.84;100.00
75136;BME280;63707;52.212;9.540;2022-12-07T00:32:14;99831.72;;;1.87;100.00
75136;BME280;63707;52.212;9.540;2022-12-07T00:34:40;99831.03;;;1.85;100.00
75136;BME280;63707;52.212;9.540;2022-12-07T00:37:07;99824.81;;;1.85;100.00
75136;BME280;63707;52.212;9.540;2022-12-07T00:39:32;99832.72;;;1.86;100.00
75136;BME280;63707;52.212;9.540;2022-12-07T00:41:58;99829.03;;;1.87;100.00
75136;BME280;63707;52.212;9.540;2022-12-07T00:44:23;99828.59;;;1.92;100.00
75136;BME280;63707;52.212;9.540;2022-12-07T00:46:49;99828.59;;;1.92;100.00
75136;BME280;63707;52.212;9.540;2022-12-07T00:49:14;99824.22;;;1.91;100.00
75136;BME280;63707;52.212;9.540;2022-12-07T00:51:40;99825.91;;;1.92;100.00
75136;BME280;63707;52.212;9.540;2022-12-07T00:54:07;99831.97;;;1.94;100.00
75136;BME280;63707;52.212;9.540;2022-12-07T00:56:33;99833.81;;;1.94;100.00
75136;BME280;63707;52.212;9.540;2022-12-07T00:59:00;99818.38;;;1.96;100.00
75136;BME280;63707;52.212;9.540;2022-12-07T01:01:29;99815.69;;;1.96;100.00
75136;BME280;63707;52.212;9.540;2022-12-07T01:03:54;99830.50;;;2.00;100.00
75136;BME280;63707;52.212;9.540;2022-12-07T01:06:22;99830.88;;;2.05;100.00
75136;BME280;63707;52.212;9.540;2022-12-07T01:08:48;99829.03;;;2.05;100.00
75136;BME280;63707;52.212;9.540;2022-12-07T01:11:16;99831.72;;;2.05;100.00
75136;BME280;63707;52.212;9.540;2022-12-07T01:13:43;99820.81;;;2.07;100.00
75136;BME280;63707;52.212;9.540;2022-12-07T01:16:11;99822.34;;;2.09;100.00
75136;BME280;63707;52.212;9.540;2022-12-07T01:18:37;99822.50;;;2.08;100.00
75136;BME280;63707;52.212;9.540;2022-12-07T01:21:04;99826.19;;;2.07;100.00
75136;BME280;63707;52.212;9.540;2022-12-07T01:23:31;99821.34;;;2.10;100.00
75136;BME280;63707;52.212;9.540;2022-12-07T01:25:58;99827.56;;;2.11;100.00
75136;BME280;63707;52.212;9.540;2022-12-07T01:28:26;99822.84;;;2.13;100.00
75136;BME280;63707;52.212;9.540;2022-12-07T01:30:57;99820.50;;;2.10;100.00
75136;BME280;63707;52.212;9.540;2022-12-07T01:33:22;99820.84;;;2.15;100.00
75136;BME280;63707;52.212;9.540;2022-12-07T01:35:48;99827.22;;;2.14;100.00
75136;BME280;63707;52.212;9.540;2022-12-07T01:38:13;99821.50;;;2.09;100.00
75136;BME280;63707;52.212;9.540;2022-12-07T01:40:39;99818.66;;;2.10;100.00
75136;BME280;63707;52.212;9.540;2022-12-07T01:43:04;99817.31;;;2.14;100.00
75136;BME280;63707;52.212;9.540;2022-12-07T01:45:40;99823.03;;;2.11;100.00
75136;BME280;63707;52.212;9.540;2022-12-07T01:48:07;99823.22;;;2.18;100.00
75136;BME280;63707;52.212;9.540;2022-12-07T01:50:35;99821.22;;;2.20;100.00
75136;BME280;63707;52.212;9.540;2022-12-07T01:53:02;99816.38;;;2.24;100.00
75136;BME280;63707;52.212;9.540;2022-12-07T01:55:30;99821.44;;;2.27;100.00
75136;BME280;63707;52.212;9.540;2022-12-07T01:57:56;99815.72;;;2.30;100.00
75136;BME280;63707;52.212;9.540;2022-12-07T02:00:22;99806.34;;;2.34;100.00
75136;BME280;63707;52.212;9.540;2022-12-07T02:02:53;99800.81;;;2.35;100.00
75136;BME280;63707;52.212;9.540;2022-12-07T02:05:19;99806.06;;;2.37;100.00
75136;BME280;63707;52.212;9.540;2022-12-07T02:07:47;99805.56;;;2.41;100.00
75136;BME280;63707;52.212;9.540;2022-12-07T02:10:15;99815.16;;;2.44;100.00
75136;BME280;63707;52.212;9.540;2022-12-07T02:12:41;99815.31;;;2.42;100.00
75136;BME280;63707;52.212;9.540;2022-12-07T02:15:08;99807.94;;;2.44;100.00
75136;BME280;63707;52.212;9.540;2022-12-07T02:17:42;99808.47;;;2.48;100.00
75136;BME280;63707;52.212;9.540;2022-12-07T02:20:29;99805.44;;;2.51;100.00
75136;BME280;63707;52.212;9.540;2022-12-07T02:23:12;99799.22;;;2.50;100.00
75136;BME280;63707;52.212;9.540;2022-12-07T02:26:02;99798.06;;;2.53;100.00
75136;BME280;63707;52.212;9.540;2022-12-07T02:28:37;99789.66;;;2.56;100.00
75136;BME280;63707;52.212;9.540;2022-12-07T02:31:08;99788.34;;;2.60;100.00
75136;BME280;63707;52.212;9.540;2022-12-07T02:33:37;99783.81;;;2.61;100.00
75136;BME280;63707;52.212;9.540;2022-12-07T02:36:07;99784.81;;;2.60;100.00
75136;BME280;63707;52.212;9.540;2022-12-07T02:38:38;99783.28;;;2.57;100.00
75136;BME280;63707;52.212;9.540;2022-12-07T02:41:10;99787.63;;;2.50;100.00
75136;BME280;63707;52.212;9.540;2022-12-07T02:43:39;99783.44;;;2.56;100.00
75136;BME280;63707;52.212;9.540;2022-12-07T02:46:12;99782.94;;;2.52;100.00
75136;BME280;63707;52.212;9.540;2022-12-07T02:48:39;99786.25;;;2.46;100.00
75136;BME280;63707;52.212;9.540;2022-12-07T02:51:06;99785.59;;;2.44;100.00
75136;BME280;63707;52.212;9.540;2022-12-07T02:53:33;99788.44;;;2.42;100.00
75136;BME280;63707;52.212;9.540;2022-12-07T02:56:03;99773.47;;;2.40;100.00
75136;BME280;63707;52.212;9.540;2022-12-07T02:58:38;99780.69;;;2.39;100.00
75136;BME280;63707;52.212;9.540;2022-12-07T03:01:16;99784.84;;;2.34;100.00
75136;BME280;63707;52.212;9.540;2022-12-07T03:03:48;99775.88;;;2.25;100.00
75136;BME280;63707;52.212;9.540;2022-12-07T03:06:22;99773.19;;;2.25;100.00
75136;BME280;63707;52.212;9.540;2022-12-07T03:08:57;99774.38;;;2.22;100.00
75136;BME280;63707;52.212;9.540;2022-12-07T03:11:34;99773.03;;;2.27;100.00
75136;BME280;63707;52.212;9.540;2022-12-07T03:14:09;99770.78;;;2.40;100.00
75136;BME280;63707;52.212;9.540;2022-12-07T03:16:44;99773.63;;;2.38;100.00
75136;BME280;63707;52.212;9.540;2022-12-07T03:19:15;99769.38;;;2.36;100.00
75136;BME280;63707;52.212;9.540;2022-12-07T03:21:44;99764.34;;;2.33;100.00
75136;BME280;63707;52.212;9.540;2022-12-07T03:24:14;99767.41;;;2.38;100.00
75136;BME280;63707;52.212;9.540;2022-12-07T03:26:42;99764.72;;;2.38;100.00
75136;BME280;63707;52.212;9.540;2022-12-07T03:29:12;99768.25;;;2.38;100.00
75136;BME280;63707;52.212;9.540;2022-12-07T03:31:43;99764.34;;;2.33;100.00
75136;BME280;63707;52.212;9.540;2022-12-07T03:34:16;99753.41;;;2.34;100.00
75136;BME280;63707;52.212;9.540;2022-12-07T03:36:47;99758.63;;;2.36;99.83
75136;BME280;63707;52.212;9.540;2022-12-07T03:39:22;99764.66;;;2.30;100.00
75136;BME280;63707;52.212;9.540;2022-12-07T03:41:49;99763.63;;;2.22;100.00
75136;BME280;63707;52.212;9.540;2022-12-07T03:44:16;99762.78;;;2.22;100.00
75136;BME280;63707;52.212;9.540;2022-12-07T03:46:45;99767.41;;;2.12;100.00
75136;BME280;63707;52.212;9.540;2022-12-07T03:49:18;99762.25;;;2.18;100.00
75136;BME280;63707;52.212;9.540;2022-12-07T03:51:53;99762.41;;;2.17;100.00
75136;BME280;63707;52.212;9.540;2022-12-07T03:54:24;99766.22;;;2.06;100.00
75136;BME280;63707;52.212;9.540;2022-12-07T03:56:50;99762.72;;;2.14;100.00
75136;BME280;63707;52.212;9.540;2022-12-07T03:59:17;99763.91;;;2.11;100.00
75136;BME280;63707;52.212;9.540;2022-12-07T04:01:45;99774.06;;;2.00;100.00
75136;BME280;63707;52.212;9.540;2022-12-07T04:04:16;99776.31;;;2.12;100.00
75136;BME280;63707;52.212;9.540;2022-12-07T04:06:42;99772.28;;;2.08;100.00
75136;BME280;63707;52.212;9.540;2022-12-07T04:09:08;99776.50;;;2.11;100.00
75136;BME280;63707;52.212;9.540;2022-12-07T04:11:33;99771.44;;;2.08;100.00
75136;BME280;63707;52.212;9.540;2022-12-07T04:13:59;99771.13;;;2.11;99.89
75136;BME280;63707;52.212;9.540;2022-12-07T04:16:44;99775.47;;;2.12;100.00
75136;BME280;63707;52.212;9.540;2022-12-07T04:19:10;99777.66;;;2.08;99.70
75136;BME280;63707;52.212;9.540;2022-12-07T04:21:35;99765.22;;;2.07;99.94
75136;BME280;63707;52.212;9.540;2022-12-07T04:24:01;99775.41;;;1.96;100.00
75136;BME280;63707;52.212;9.540;2022-12-07T04:26:26;99773.78;;;1.85;100.00
75136;BME280;63707;52.212;9.540;2022-12-07T04:28:52;99778.56;;;1.91;100.00
75136;BME280;63707;52.212;9.540;2022-12-07T04:31:17;99783.53;;;1.86;100.00
75136;BME280;63707;52.212;9.540;2022-12-07T04:33:44;99784.53;;;1.85;100.00
75136;BME280;63707;52.212;9.540;2022-12-07T04:36:10;99775.47;;;1.86;100.00
75136;BME280;63707;52.212;9.540;2022-12-07T04:38:35;99769.78;;;1.89;100.00
75136;BME280;63707;52.212;9.540;2022-12-07T04:41:04;99772.56;;;1.79;100.00
75136;BME280;63707;52.212;9.540;2022-12-07T04:43:31;99771.84;;;1.69;100.00
75136;BME280;63707;52.212;9.540;2022-12-07T04:45:56;99769.16;;;1.69;100.00
75136;BME280;63707;52.212;9.540;2022-12-07T04:48:22;99769.78;;;1.63;100.00
75136;BME280;63707;52.212;9.540;2022-12-07T04:50:49;99766.25;;;1.63;100.00
75136;BME280;63707;52.212;9.540;2022-12-07T04:53:15;99769.88;;;1.53;100.00
75136;BME280;63707;52.212;9.540;2022-12-07T04:55:40;99766.34;;;1.53;100.00
75136;BME280;63707;52.212;9.540;2022-12-07T04:58:06;99767.03;;;1.55;100.00
75136;BME280;63707;52.212;9.540;2022-12-07T05:00:31;99765.63;;;1.69;100.00
75136;BME280;63707;52.212;9.540;2022-12-07T05:02:57;99768.47;;;1.67;100.00
75136;BME280;63707;52.212;9.540;2022-12-07T05:05:22;99766.00;;;1.74;100.00
75136;BME280;63707;52.212;9.540;2022-12-07T05:07:50;99769.00;;;1.71;100.00
75136;BME280;63707;52.212;9.540;2022-12-07T05:10:16;99767.31;;;1.70;100.00
75136;BME280;63707;52.212;9.540;2022-12-07T05:12:42;99761.84;;;1.79;99.61
75136;BME280;63707;52.212;9.540;2022-12-07T05:15:08;99760.34;;;1.85;99.10
75136;BME280;63707;52.212;9.540;2022-12-07T05:17:33;99768.41;;;1.85;99.40
75136;BME280;63707;52.212;9.540;2022-12-07T05:19:59;99762.88;;;1.86;99.27
75136;BME280;63707;52.212;9.540;2022-12-07T05:22:24;99761.72;;;1.89;98.88
75136;BME280;63707;52.212;9.540;2022-12-07T05:24:54;99755.91;;;1.94;98.91
75136;BME280;63707;52.212;9.540;2022-12-07T05:27:20;99752.22;;;1.95;98.77
75136;BME280;63707;52.212;9.540;2022-12-07T05:29:46;99756.06;;;1.92;98.30
75136;BME280;63707;52.212;9.540;2022-12-07T05:32:11;99758.06;;;1.90;99.15
75136;BME280;63707;52.212;9.540;2022-12-07T05:34:37;99763.28;;;1.92;98.41
75136;BME280;63707;52.212;9.540;2022-12-07T05:37:03;99754.75;;;1.96;98.45
75136;BME280;63707;52.212;9.540;2022-12-07T05:39:28;99749.91;;;2.00;97.94
75136;BME280;63707;52.212;9.540;2022-12-07T05:41:55;99754.94;;;2.03;97.97
75136;BME280;63707;52.212;9.540;2022-12-07T05:44:39;99748.06;;;2.00;98.49
75136;BME280;63707;52.212;9.540;2022-12-07T05:47:05;99748.41;;;2.05;98.00
75136;BME280;63707;52.212;9.540;2022-12-07T05:49:30;99741.03;;;2.07;97.34
75136;BME280;63707;52.212;9.540;2022-12-07T05:51:56;99739.66;;;2.03;97.80
75136;BME280;63707;52.212;9.540;2022-12-07T05:54:21;99749.41;;;2.04;97.87
75136;BME280;63707;52.212;9.540;2022-12-07T05:56:47;99743.03;;;2.05;97.66
75136;BME280;63707;52.212;9.540;2022-12-07T05:59:15;99739.50;;;2.05;97.75
75136;BME280;63707;52.212;9.540;2022-12-07T06:01:51;99751.09;;;2.05;98.26
75136;BME280;63707;52.212;9.540;2022-12-07T06:04:17;99741.88;;;2.08;98.23
75136;BME280;63707;52.212;9.540;2022-12-07T06:06:43;99739.88;;;2.10;98.14
75136;BME280;63707;52.212;9.540;2022-12-07T06:09:09;99744.44;;;2.17;97.43
75136;BME280;63707;52.212;9.540;2022-12-07T06:11:35;99740.91;;;2.17;97.11
75136;BME280;63707;52.212;9.540;2022-12-07T06:14:20;99747.97;;;2.18;96.93
75136;BME280;63707;52.212;9.540;2022-12-07T06:16:46;99743.13;;;2.21;96.69
75136;BME280;63707;52.212;9.540;2022-12-07T06:19:12;99743.47;;;2.27;97.25
75136;BME280;63707;52.212;9.540;2022-12-07T06:21:37;99741.19;;;2.40;96.88
75136;BME280;63707;52.212;9.540;2022-12-07T06:24:03;99742.09;;;2.57;97.51
75136;BME280;63707;52.212;9.540;2022-12-07T06:26:29;99747.50;;;2.22;97.01
75136;BME280;63707;52.212;9.540;2022-12-07T06:28:54;99752.19;;;2.20;96.65
75136;BME280;63707;52.212;9.540;2022-12-07T06:31:21;99756.03;;;2.18;97.47
75136;BME280;63707;52.212;9.540;2022-12-07T06:33:47;99747.28;;;2.16;97.46
75136;BME280;63707;52.212;9.540;2022-12-07T06:36:15;99761.94;;;2.21;97.12
75136;BME280;63707;52.212;9.540;2022-12-07T06:38:41;99754.53;;;2.24;95.98
75136;BME280;63707;52.212;9.540;2022-12-07T06:41:06;99754.72;;;2.22;96.95
75136;BME280;63707;52.212;9.540;2022-12-07T06:43:32;99748.00;;;2.26;95.98
75136;BME280;63707;52.212;9.540;2022-12-07T06:45:57;99752.69;;;2.24;95.60
75136;BME280;63707;52.212;9.540;2022-12-07T06:48:24;99755.72;;;2.21;96.44
75136;BME280;63707;52.212;9.540;2022-12-07T06:50:50;99760.41;;;2.19;96.32
75136;BME280;63707;52.212;9.540;2022-12-07T06:53:15;99767.09;;;2.15;97.00
75136;BME280;63707;52.212;9.540;2022-12-07T06:55:42;99773.59;;;2.04;98.12
75136;BME280;63707;52.212;9.540;2022-12-07T06:58:08;99770.66;;;1.89;100.00
75136;BME280;63707;52.212;9.540;2022-12-07T07:00:33;99771.78;;;1.87;98.51
75136;BME280;63707;52.212;9.540;2022-12-07T07:03:01;99768.41;;;1.85;98.68
75136;BME280;63707;52.212;9.540;2022-12-07T07:05:27;99770.78;;;1.88;99.19
75136;BME280;63707;52.212;9.540;2022-12-07T07:07:53;99769.66;;;1.91;98.23
75136;BME280;63707;52.212;9.540;2022-12-07T07:10:19;99767.50;;;1.94;98.57
75136;BME280;63707;52.212;9.540;2022-12-07T07:12:44;99770.19;;;1.94;98.58
75136;BME280;63707;52.212;9.540;2022-12-07T07:15:10;99762.59;;;1.89;99.31
75136;BME280;63707;52.212;9.540;2022-12-07T07:17:36;99758.75;;;1.92;99.65
75136;BME280;63707;52.212;9.540;2022-12-07T07:20:02;99770.19;;;1.94;99.00
75136;BME280;63707;52.212;9.540;2022-12-07T07:22:29;99770.03;;;1.96;98.80
75136;BME280;63707;52.212;9.540;2022-12-07T07:24:55;99769.19;;;1.95;98.88
75136;BME280;63707;52.212;9.540;2022-12-07T07:27:20;99774.06;;;2.00;99.34
75136;BME280;63707;52.212;9.540;2022-12-07T07:29:46;99770.19;;;1.94;99.75
75136;BME280;63707;52.212;9.540;2022-12-07T07:32:11;99766.81;;;1.92;99.37
75136;BME280;63707;52.212;9.540;2022-12-07T07:34:37;99775.91;;;1.99;98.75
75136;BME280;63707;52.212;9.540;2022-12-07T07:37:03;99772.06;;;2.02;98.53
75136;BME280;63707;52.212;9.540;2022-12-07T07:39:30;99774.44;;;2.05;98.65
75136;BME280;63707;52.212;9.540;2022-12-07T07:41:55;99777.28;;;2.03;98.46
75136;BME280;63707;52.212;9.540;2022-12-07T07:44:21;99782.13;;;2.00;98.65
75136;BME280;63707;52.212;9.540;2022-12-07T07:46:47;99778.97;;;2.04;98.04
75136;BME280;63707;52.212;9.540;2022-12-07T07:49:12;99771.75;;;2.05;98.74
75136;BME280;63707;52.212;9.540;2022-12-07T07:51:38;99787.88;;;2.05;98.66
75136;BME280;63707;52.212;9.540;2022-12-07T07:54:03;99787.03;;;2.04;98.65
75136;BME280;63707;52.212;9.540;2022-12-07T07:56:30;99793.78;;;2.08;98.43
75136;BME280;63707;52.212;9.540;2022-12-07T07:58:56;99785.56;;;2.10;97.55
75136;BME280;63707;52.212;9.540;2022-12-07T08:01:21;99787.56;;;2.08;98.46
75136;BME280;63707;52.212;9.540;2022-12-07T08:03:48;99789.09;;;2.10;98.55
75136;BME280;63707;52.212;9.540;2022-12-07T08:06:14;99793.25;;;2.05;98.07
75136;BME280;63707;52.212;9.540;2022-12-07T08:08:39;99795.63;;;2.08;97.87
75136;BME280;63707;52.212;9.540;2022-12-07T08:11:05;99797.63;;;2.06;98.17
75136;BME280;63707;52.212;9.540;2022-12-07T08:13:32;99797.16;;;2.10;98.17
75136;BME280;63707;52.212;9.540;2022-12-07T08:15:58;99794.47;;;2.10;98.17
75136;BME280;63707;52.212;9.540;2022-12-07T08:18:28;99794.78;;;2.07;99.27
75136;BME280;63707;52.212;9.540;2022-12-07T08:20:58;99796.16;;;2.11;97.63
75136;BME280;63707;52.212;9.540;2022-12-07T08:23:24;99791.44;;;2.13;97.33
75136;BME280;63707;52.212;9.540;2022-12-07T08:25:49;99799.19;;;2.16;98.03
75136;BME280;63707;52.212;9.540;2022-12-07T08:28:15;99796.03;;;2.21;97.69
75136;BME280;63707;52.212;9.540;2022-12-07T08:30:42;99795.19;;;2.20;97.30
75136;BME280;63707;52.212;9.540;2022-12-07T08:33:09;99792.84;;;2.26;97.05
75136;BME280;63707;52.212;9.540;2022-12-07T08:35:35;99786.84;;;2.32;97.38
75136;BME280;63707;52.212;9.540;2022-12-07T08:38:01;99788.69;;;2.31;96.50
75136;BME280;63707;52.212;9.540;2022-12-07T08:40:27;99792.66;;;2.19;96.69
75136;BME280;63707;52.212;9.540;2022-12-07T08:42:53;99792.81;;;2.17;97.26
75136;BME280;63707;52.212;9.540;2022-12-07T08:45:20;99791.66;;;2.20;97.16
75136;BME280;63707;52.212;9.540;2022-12-07T08:47:50;99797.72;;;2.22;96.97
75136;BME280;63707;52.212;9.540;2022-12-07T08:50:17;99794.06;;;2.31;96.87
75136;BME280;63707;52.212;9.540;2022-12-07T08:52:43;99796.91;;;2.30;96.15
75136;BME280;63707;52.212;9.540;2022-12-07T08:55:10;99794.06;;;2.31;95.99
75136;BME280;63707;52.212;9.540;2022-12-07T08:57:39;99792.00;;;2.25;94.94
75136;BME280;63707;52.212;9.540;2022-12-07T09:00:05;99797.97;;;2.37;96.83
75136;BME280;63707;52.212;9.540;2022-12-07T09:02:32;99804.41;;;2.44;97.17
75136;BME280;63707;52.212;9.540;2022-12-07T09:04:59;99794.38;;;2.28;95.14
75136;BME280;63707;52.212;9.540;2022-12-07T09:07:25;99808.81;;;2.27;94.76
75136;BME280;63707;52.212;9.540;2022-12-07T09:09:51;99813.38;;;2.27;95.19
75136;BME280;63707;52.212;9.540;2022-12-07T09:12:16;99816.06;;;2.27;94.99
75136;BME280;63707;52.212;9.540;2022-12-07T09:14:42;99817.56;;;2.29;95.14
75136;BME280;63707;52.212;9.540;2022-12-07T09:17:08;99818.06;;;2.25;96.39
75136;BME280;63707;52.212;9.540;2022-12-07T09:19:34;99821.44;;;2.27;95.89
75136;BME280;63707;52.212;9.540;2022-12-07T09:22:01;99825.13;;;2.26;94.92
75136;BME280;63707;52.212;9.540;2022-12-07T09:24:27;99825.38;;;2.14;97.75
75136;BME280;63707;52.212;9.540;2022-12-07T09:26:52;99818.13;;;2.07;98.05
75136;BME280;63707;52.212;9.540;2022-12-07T09:29:18;99817.13;;;2.08;97.01
75136;BME280;63707;52.212;9.540;2022-12-07T09:31:43;99814.44;;;2.08;97.80
75136;BME280;63707;52.212;9.540;2022-12-07T09:34:09;99822.69;;;2.14;96.60
75136;BME280;63707;52.212;9.540;2022-12-07T09:36:35;99813.44;;;2.09;95.18
75136;BME280;63707;52.212;9.540;2022-12-07T09:39:02;99814.13;;;2.11;95.57
75136;BME280;63707;52.212;9.540;2022-12-07T09:41:30;99809.25;;;2.14;97.54
75136;BME280;63707;52.212;9.540;2022-12-07T09:44:02;99820.59;;;2.00;95.96
75136;BME280;63707;52.212;9.540;2022-12-07T09:46:32;99812.84;;;1.97;97.47
75136;BME280;63707;52.212;9.540;2022-12-07T09:49:00;99807.09;;;1.92;97.31
75136;BME280;63707;52.212;9.540;2022-12-07T09:51:26;99801.63;;;2.02;98.38
75136;BME280;63707;52.212;9.540;2022-12-07T09:53:53;99793.56;;;2.02;97.38
75136;BME280;63707;52.212;9.540;2022-12-07T09:56:21;99790.09;;;2.09;97.25
75136;BME280;63707;52.212;9.540;2022-12-07T09:58:48;99791.41;;;2.05;97.78
75136;BME280;63707;52.212;9.540;2022-12-07T10:01:16;99797.16;;;2.10;97.67
75136;BME280;63707;52.212;9.540;2022-12-07T10:03:46;99801.34;;;2.13;97.32
75136;BME280;63707;52.212;9.540;2022-12-07T10:06:13;99792.03;;;2.59;96.09
75136;BME280;63707;52.212;9.540;2022-12-07T10:08:39;99781.78;;;3.13;93.13
75136;BME280;63707;52.212;9.540;2022-12-07T10:11:07;99789.22;;;2.77;93.24
75136;BME280;63707;52.212;9.540;2022-12-07T10:13:38;99787.66;;;2.58;95.01
75136;BME280;63707;52.212;9.540;2022-12-07T10:16:05;99786.22;;;2.80;95.06
75136;BME280;63707;52.212;9.540;2022-12-07T10:18:32;99795.09;;;2.72;95.14
75136;BME280;63707;52.212;9.540;2022-12-07T10:21:10;99779.75;;;2.57;95.57
75136;BME280;63707;52.212;9.540;2022-12-07T10:23:38;99793.97;;;2.41;95.45
75136;BME280;63707;52.212;9.540;2022-12-07T10:26:21;99787.09;;;2.46;95.30
75136;BME280;63707;52.212;9.540;2022-12-07T10:28:53;99795.69;;;2.50;94.91
75136;BME280;63707;52.212;9.540;2022-12-07T10:31:21;99791.63;;;2.46;96.51
75136;BME280;63707;52.212;9.540;2022-12-07T10:33:50;99787.06;;;2.38;96.80
75136;BME280;63707;52.212;9.540;2022-12-07T10:36:19;99783.25;;;2.49;95.84
75136;BME280;63707;52.212;9.540;2022-12-07T10:38:47;99782.16;;;2.34;96.33
75136;BME280;63707;52.212;9.540;2022-12-07T10:41:13;99787.22;;;2.37;95.94
75136;BME280;63707;52.212;9.540;2022-12-07T10:43:46;99793.31;;;2.47;96.87
75136;BME280;63707;52.212;9.540;2022-12-07T10:46:34;99786.25;;;2.46;96.58
75136;BME280;63707;52.212;9.540;2022-12-07T10:49:17;99792.13;;;2.41;95.67
75136;BME280;63707;52.212;9.540;2022-12-07T10:51:55;99777.19;;;2.47;96.53
75136;BME280;63707;52.212;9.540;2022-12-07T10:54:32;99771.13;;;2.45;97.44
75136;BME280;63707;52.212;9.540;2022-12-07T10:57:31;99772.31;;;2.42;95.74
75136;BME280;63707;52.212;9.540;2022-12-07T11:00:03;99762.78;;;2.56;94.75
75136;BME280;63707;52.212;9.540;2022-12-07T11:02:44;99761.59;;;2.59;95.93
75136;BME280;63707;52.212;9.540;2022-12-07T11:05:17;99766.50;;;2.63;95.72
75136;BME280;63707;52.212;9.540;2022-12-07T11:07:55;99760.28;;;2.63;94.96
75136;BME280;63707;52.212;9.540;2022-12-07T11:10:26;99764.66;;;2.64;94.38
75136;BME280;63707;52.212;9.540;2022-12-07T11:13:04;99759.97;;;2.82;94.72
75136;BME280;63707;52.212;9.540;2022-12-07T11:15:47;99754.78;;;2.80;95.04
75136;BME280;63707;52.212;9.540;2022-12-07T11:18:22;99757.09;;;2.75;95.08
75136;BME280;63707;52.212;9.540;2022-12-07T11:20:54;99750.41;;;2.79;94.61
75136;BME280;63707;52.212;9.540;2022-12-07T11:23:30;99748.38;;;2.81;94.67
75136;BME280;63707;52.212;9.540;2022-12-07T11:26:03;99754.31;;;2.85;94.83
75136;BME280;63707;52.212;9.540;2022-12-07T11:28:43;99750.03;;;2.74;94.36
75136;BME280;63707;52.212;9.540;2022-12-07T11:31:18;99741.97;;;2.74;94.74
75136;BME280;63707;52.212;9.540;2022-12-07T11:33:53;99742.97;;;2.73;94.54
75136;BME280;63707;52.212;9.540;2022-12-07T11:36:33;99734.09;;;2.81;94.72
75136;BME280;63707;52.212;9.540;2022-12-07T11:39:03;99739.97;;;2.76;94.28
75136;BME280;63707;52.212;9.540;2022-12-07T11:41:32;99744.38;;;2.86;94.01
75136;BME280;63707;52.212;9.540;2022-12-07T11:44:04;99729.75;;;2.88;92.81
75136;BME280;63707;52.212;9.540;2022-12-07T11:46:43;99731.78;;;2.94;91.82
75136;BME280;63707;52.212;9.540;2022-12-07T11:49:16;99728.94;;;3.20;92.97
75136;BME280;63707;52.212;9.540;2022-12-07T11:51:45;99727.94;;;3.13;93.02
75136;BME280;63707;52.212;9.540;2022-12-07T11:54:17;99723.41;;;3.13;91.83
75136;BME280;63707;52.212;9.540;2022-12-07T11:56:48;99722.88;;;3.10;92.68
75136;BME280;63707;52.212;9.540;2022-12-07T11:59:17;99709.94;;;3.22;91.72
75136;BME280;63707;52.212;9.540;2022-12-07T12:01:52;99714.84;;;3.34;90.76
75136;BME280;63707;52.212;9.540;2022-12-07T12:04:35;99709.78;;;3.31;91.78
75136;BME280;63707;52.212;9.540;2022-12-07T12:07:06;99710.78;;;3.22;91.50
75136;BME280;63707;52.212;9.540;2022-12-07T12:09:35;99708.25;;;3.04;91.14
75136;BME280;63707;52.212;9.540;2022-12-07T12:12:21;99697.66;;;3.11;93.38
75136;BME280;63707;52.212;9.540;2022-12-07T12:15:00;99711.44;;;3.08;92.17
75136;BME280;63707;52.212;9.540;2022-12-07T12:17:45;99711.44;;;3.08;92.05
75136;BME280;63707;52.212;9.540;2022-12-07T12:20:20;99701.19;;;3.03;92.22
75136;BME280;63707;52.212;9.540;2022-12-07T12:22:51;99701.53;;;3.08;92.27
75136;BME280;63707;52.212;9.540;2022-12-07T12:25:21;99700.00;;;2.98;92.99
75136;BME280;63707;52.212;9.540;2022-12-07T12:27:50;99702.19;;;3.02;92.39
75136;BME280;63707;52.212;9.540;2022-12-07T12:30:29;99693.28;;;3.02;91.63
75136;BME280;63707;52.212;9.540;2022-12-07T12:33:02;99696.31;;;3.07;91.23
75136;BME280;63707;52.212;9.540;2022-12-07T12:35:32;99693.63;;;3.15;90.90
75136;BME280;63707;52.212;9.540;2022-12-07T12:38:22;99686.72;;;3.37;90.94
75136;BME280;63707;52.212;9.540;2022-12-07T12:40:49;99681.03;;;3.32;90.62
75136;BME280;63707;52.212;9.540;2022-12-07T12:43:44;99687.22;;;3.57;90.63
75136;BME280;63707;52.212;9.540;2022-12-07T12:49:42;99667.69;;;3.55;88.51
75136;BME280;63707;52.212;9.540;2022-12-07T12:55:16;99681.97;;;3.63;88.43
75136;BME280;63707;52.212;9.540;2022-12-07T12:57:47;99674.78;;;3.47;88.98
75136;BME280;63707;52.212;9.540;2022-12-07T13:00:18;99682.19;;;3.45;88.47
75136;BME280;63707;52.212;9.540;2022-12-07T13:02:48;99674.94;;;3.38;88.08
75136;BME280;63707;52.212;9.540;2022-12-07T13:05:18;99673.75;;;3.48;89.28
75136;BME280;63707;52.212;9.540;2022-12-07T13:07:54;99669.03;;;3.51;88.28
75136;BME280;63707;52.212;9.540;2022-12-07T13:10:29;99669.72;;;3.44;89.72
75136;BME280;63707;52.212;9.540;2022-12-07T13:13:02;99664.69;;;3.41;88.48
75136;BME280;63707;52.212;9.540;2022-12-07T13:15:33;99675.28;;;3.35;88.17
75136;BME280;63707;52.212;9.540;2022-12-07T13:18:01;99666.69;;;3.39;88.13
75136;BME280;63707;52.212;9.540;2022-12-07T13:20:48;99672.75;;;3.25;89.07
75136;BME280;63707;52.212;9.540;2022-12-07T13:23:18;99667.69;;;3.22;89.01